Rices Crossing, Texas
Current Conditions -  °F | °C
As of 4:58 AM on Sunday 23 Nov 2014 (Local Time) from KGRK Reporting Station
Clear Clear  
Wind Chill: 11°   Ceiling: Unl
Heat Index: 11°   Visibility: 9mi
Dew Point: 11°   Wind: 6mph
Humidity: 98%   Direction: 200°SSW
Pressure: 29.65"   Gusts: NA
Location:  30.5793°N, 97.5096°W
Report Text: KGRK 231058Z AUTO 20005KT 9SM CLR 11/11 A2965 RMK AO2 SLP037 T01140111
Loading
Personal Weather Stations






























Interactive Weather Map New forecast layout! Learn more

10-Day Weather Forecast

Advertisements
Track Severe Weather on mobile